Time;durP1;ratioP1;P1;durP2;ratioP2;P2;SDS_P1;SDS_P2;PMS_P1;PMS_P2;Temp;Humidity;BMP_temperature;BMP_pressure;BME280_temperature;BME280_humidity;BME280_pressure;Samples;Min_cycle;Max_cycle;Signal;HPM_P1;HPM_P2
2023/05/01 00:02:07;;;;;;;;;;;;;;;-140.72;100.00;52668.84;5086230;28;19920;-70
2023/05/01 00:04:32;;;;;;;;;;;;;;;-140.72;100.00;52658.72;5084247;28;19916;-69
2023/05/01 00:06:58;;;;;;;;;;;;;;;-140.72;100.00;52689.16;5076948;28;20378;-69
2023/05/01 00:09:26;;;;;;;;;;;;;;;-140.72;100.00;52672.91;5074695;28;19916;-69
2023/05/01 00:11:51;;;;;;;;;;;;;;;-140.72;100.00;52672.91;5088333;28;19974;-70
2023/05/01 00:14:16;;;;;;;;;;;;;;;-140.72;100.00;52674.94;5094112;28;19920;-70
2023/05/01 00:16:41;;;;;;;;;;;;;;;-140.72;100.00;52654.66;5094030;28;19928;-70
2023/05/01 00:19:07;;;;;;;;;;;;;;;-140.72;100.00;52660.75;5084942;28;19964;-70
2023/05/01 00:21:32;;;;;;;;;;;;;;;-140.72;100.00;52685.09;5085763;28;20010;-70
2023/05/01 00:23:57;;;;;;;;;;;;;;;-140.72;100.00;52711.47;5093744;28;19916;-69
2023/05/01 00:26:25;;;;;;;;;;;;;;;-140.72;100.00;52681.03;5082123;28;19955;-69
2023/05/01 00:28:51;;;;;;;;;;;;;;;-140.72;100.00;52687.13;5074973;28;19917;-69
2023/05/01 00:31:17;;;;;;;;;;;;;;;-140.72;100.00;52691.19;5095401;28;20431;-70
2023/05/01 00:33:42;;;;;;;;;;;;;;;-140.72;100.00;52683.06;5085065;28;19931;-69
2023/05/01 00:36:08;;;;;;;;;;;;;;;-140.72;100.00;52687.13;5089944;28;19955;-70
2023/05/01 00:38:34;;;;;;;;;;;;;;;-140.72;100.00;52695.25;5092490;28;20000;-70
2023/05/01 00:40:59;;;;;;;;;;;;;;;-140.72;100.00;52719.59;5086269;28;19971;-70
2023/05/01 00:43:24;;;;;;;;;;;;;;;-140.72;100.00;52670.88;5095078;28;19923;-70
2023/05/01 00:45:49;;;;;;;;;;;;;;;-140.72;100.00;52681.03;5093386;28;20322;-70
2023/05/01 00:48:15;;;;;;;;;;;;;;;-140.72;100.00;52715.53;5085000;28;19920;-70
2023/05/01 00:50:40;;;;;;;;;;;;;;;-140.72;100.00;52654.66;5087843;28;19923;-70
2023/05/01 00:53:07;;;;;;;;;;;;;;;-140.72;100.00;52687.13;5100137;28;19916;-69
2023/05/01 00:55:32;;;;;;;;;;;;;;;-140.72;100.00;52695.25;5094327;28;19916;-69
2023/05/01 00:57:58;;;;;;;;;;;;;;;-140.72;100.00;52666.84;5089874;28;19969;-70
2023/05/01 01:00:23;;;;;;;;;;;;;;;-140.72;100.00;52691.19;5084016;28;19932;-70
2023/05/01 01:02:49;;;;;;;;;;;;;;;-140.72;100.00;52654.66;5084640;28;19959;-70
2023/05/01 01:05:17;;;;;;;;;;;;;;;-140.72;100.00;52683.06;5090823;28;20477;-70
2023/05/01 01:07:54;;;;;;;;;;;;;;;-140.72;100.00;52693.22;5097050;28;19964;-70
2023/05/01 01:10:25;;;;;;;;;;;;;;;-140.72;100.00;52687.13;5085985;28;20018;-69
2023/05/01 01:13:00;;;;;;;;;;;;;;;-140.72;100.00;52670.88;5082792;28;19921;-70
2023/05/01 01:15:33;;;;;;;;;;;;;;;-140.72;100.00;52685.09;5081058;28;19920;-69
2023/05/01 01:17:58;;;;;;;;;;;;;;;-140.72;100.00;52652.63;5092406;28;19924;-69
2023/05/01 01:20:39;;;;;;;;;;;;;;;-140.72;100.00;52681.03;5081183;28;19916;-70
2023/05/01 01:23:18;;;;;;;;;;;;;;;-140.72;100.00;52668.84;5083778;28;19916;-69
2023/05/01 01:26:03;;;;;;;;;;;;;;;-140.72;100.00;52685.09;5092893;28;19970;-69
2023/05/01 01:28:40;;;;;;;;;;;;;;;-140.72;100.00;52652.63;5081287;28;19920;-70
2023/05/01 01:31:12;;;;;;;;;;;;;;;-140.72;100.00;52666.84;5092897;28;19973;-70
2023/05/01 01:33:44;;;;;;;;;;;;;;;-140.72;100.00;52693.22;5087097;28;19919;-69
2023/05/01 01:36:17;;;;;;;;;;;;;;;-140.72;100.00;52672.91;5100879;28;19916;-70
2023/05/01 01:38:45;;;;;;;;;;;;;;;-140.72;100.00;52691.19;5083152;28;19916;-70
2023/05/01 01:41:18;;;;;;;;;;;;;;;-140.72;100.00;52672.91;5088258;28;19924;-70
2023/05/01 01:43:45;;;;;;;;;;;;;;;-140.72;100.00;52679.00;5089577;28;19928;-70
2023/05/01 01:46:10;;;;;;;;;;;;;;;-140.72;100.00;52652.63;5078681;28;19952;-70
2023/05/01 01:48:38;;;;;;;;;;;;;;;-140.72;100.00;52674.94;5078637;28;19923;-70
2023/05/01 01:51:09;;;;;;;;;;;;;;;-140.72;100.00;52648.56;5088513;28;19962;-70
2023/05/01 01:53:36;;;;;;;;;;;;;;;-140.72;100.00;52646.53;5090586;28;20348;-70
2023/05/01 01:56:03;;;;;;;;;;;;;;;-140.72;100.00;52630.31;5084909;28;19916;-70
2023/05/01 01:58:29;;;;;;;;;;;;;;;-140.72;100.00;52634.38;5078014;28;19920;-70
2023/05/01 02:00:56;;;;;;;;;;;;;;;-140.72;100.00;52691.19;5090324;28;20374;-70
2023/05/01 02:03:23;;;;;;;;;;;;;;;-140.72;100.00;52711.47;5077263;28;20307;-70
2023/05/01 02:05:49;;;;;;;;;;;;;;;-140.72;100.00;52636.38;5078875;28;19920;-70
2023/05/01 02:08:15;;;;;;;;;;;;;;;-140.72;100.00;52685.09;5090070;28;20378;-70
2023/05/01 02:10:42;;;;;;;;;;;;;;;-140.72;100.00;52666.84;5089855;28;19920;-69
2023/05/01 02:13:08;;;;;;;;;;;;;;;-140.72;100.00;52679.00;5085227;28;19917;-70
2023/05/01 02:15:33;;;;;;;;;;;;;;;-140.72;100.00;52670.88;5089825;28;19928;-70
2023/05/01 02:18:01;;;;;;;;;;;;;;;-140.72;100.00;52679.00;5092026;28;19920;-70
2023/05/01 02:20:27;;;;;;;;;;;;;;;-140.72;100.00;52689.16;5099820;28;19920;-70
2023/05/01 02:22:52;;;;;;;;;;;;;;;-140.72;100.00;52658.72;5096321;28;19916;-69
2023/05/01 02:25:18;;;;;;;;;;;;;;;-140.72;100.00;52685.09;5082651;28;19923;-69
2023/05/01 02:27:49;;;;;;;;;;;;;;;-140.72;100.00;52634.38;5106040;27;19916;-70
2023/05/01 02:30:14;;;;;;;;;;;;;;;-140.72;100.00;52695.25;5105297;28;19920;-70
2023/05/01 02:32:40;;;;;;;;;;;;;;;-140.72;100.00;52674.94;5094580;28;20374;-70
2023/05/01 02:35:07;;;;;;;;;;;;;;;-140.72;100.00;52683.06;5092450;28;19959;-70
2023/05/01 02:37:32;;;;;;;;;;;;;;;-140.72;100.00;52687.13;5094710;28;19923;-70
2023/05/01 02:39:58;;;;;;;;;;;;;;;-140.72;100.00;52699.31;5081549;28;19921;-70
2023/05/01 02:42:24;;;;;;;;;;;;;;;-140.72;100.00;52676.97;5080281;28;19917;-70
2023/05/01 02:44:50;;;;;;;;;;;;;;;-140.72;100.00;52656.69;5088902;28;19923;-69
2023/05/01 02:47:17;;;;;;;;;;;;;;;-140.72;100.00;52672.91;5083190;28;19921;-69
2023/05/01 02:49:45;;;;;;;;;;;;;;;-140.72;100.00;52691.19;5090785;28;20351;-70
2023/05/01 02:52:11;;;;;;;;;;;;;;;-140.72;100.00;52713.50;5095564;28;19920;-70
2023/05/01 02:54:37;;;;;;;;;;;;;;;-140.72;100.00;52683.06;5096420;28;19962;-69
2023/05/01 02:57:04;;;;;;;;;;;;;;;-140.72;100.00;52679.00;5092257;28;19955;-70
2023/05/01 02:59:29;;;;;;;;;;;;;;;-140.72;100.00;52654.66;5084655;28;19920;-70
2023/05/01 03:01:54;;;;;;;;;;;;;;;-140.72;100.00;52683.06;5080661;28;19938;-70
2023/05/01 03:04:20;;;;;;;;;;;;;;;-140.72;100.00;52713.50;5084006;28;19916;-69
2023/05/01 03:06:45;;;;;;;;;;;;;;;-140.72;100.00;52679.00;5094050;28;20409;-69
2023/05/01 03:09:11;;;;;;;;;;;;;;;-140.72;100.00;52695.25;5090238;28;19960;-70
2023/05/01 03:11:36;;;;;;;;;;;;;;;-140.72;100.00;52674.94;5083738;28;20358;-70
2023/05/01 03:14:01;;;;;;;;;;;;;;;-140.72;100.00;52727.72;5082260;28;19924;-69
2023/05/01 03:16:26;;;;;;;;;;;;;;;-140.72;100.00;52679.00;5087885;28;20247;-69
2023/05/01 03:18:51;;;;;;;;;;;;;;;-140.72;100.00;52652.63;5083238;28;20398;-69
2023/05/01 03:21:17;;;;;;;;;;;;;;;-140.72;100.00;52670.88;5094511;28;19916;-69
2023/05/01 03:23:42;;;;;;;;;;;;;;;-140.72;100.00;52691.19;5084495;28;19968;-70
2023/05/01 03:26:07;;;;;;;;;;;;;;;-140.72;100.00;52723.66;5087514;28;19947;-70
2023/05/01 03:28:32;;;;;;;;;;;;;;;-140.72;100.00;52687.13;5096713;28;19939;-70
2023/05/01 03:30:58;;;;;;;;;;;;;;;-140.72;100.00;52656.69;5098598;28;19934;-70
2023/05/01 03:33:23;;;;;;;;;;;;;;;-140.72;100.00;52691.19;5081242;28;20336;-70
2023/05/01 03:35:57;;;;;;;;;;;;;;;-140.72;100.00;52695.25;5079623;28;19920;-69
2023/05/01 03:38:22;;;;;;;;;;;;;;;-140.72;100.00;52743.94;5095167;28;19920;-70
2023/05/01 03:40:48;;;;;;;;;;;;;;;-140.72;100.00;52693.22;5088719;28;19969;-70
2023/05/01 03:43:13;;;;;;;;;;;;;;;-140.72;100.00;52703.34;5092863;28;19916;-70
2023/05/01 03:45:38;;;;;;;;;;;;;;;-140.72;100.00;52683.06;5087860;28;20004;-70
2023/05/01 03:48:03;;;;;;;;;;;;;;;-140.72;100.00;52674.94;5086238;28;19916;-70
2023/05/01 03:50:29;;;;;;;;;;;;;;;-140.72;100.00;52687.13;5088438;28;19916;-70
2023/05/01 03:52:54;;;;;;;;;;;;;;;-140.72;100.00;52683.06;5092930;28;19923;-69
2023/05/01 03:55:19;;;;;;;;;;;;;;;-140.72;100.00;52699.31;5081337;28;19916;-69
2023/05/01 03:57:46;;;;;;;;;;;;;;;-140.72;100.00;52674.94;5087621;28;19920;-69
2023/05/01 04:00:11;;;;;;;;;;;;;;;-140.72;100.00;52685.09;5096244;28;19920;-70
2023/05/01 04:02:39;;;;;;;;;;;;;;;-140.72;100.00;52681.03;5092163;28;20379;-69
2023/05/01 04:05:04;;;;;;;;;;;;;;;-140.72;100.00;52707.41;5087860;28;19973;-69
2023/05/01 04:07:29;;;;;;;;;;;;;;;-140.72;100.00;52711.47;5091863;28;20358;-69
2023/05/01 04:09:54;;;;;;;;;;;;;;;-140.72;100.00;52687.13;5094935;28;20313;-69
2023/05/01 04:12:20;;;;;;;;;;;;;;;-140.72;100.00;52685.09;5080172;28;19927;-70
2023/05/01 04:14:45;;;;;;;;;;;;;;;-140.72;100.00;52707.41;5084523;28;19931;-70
2023/05/01 04:17:11;;;;;;;;;;;;;;;-140.72;100.00;52725.69;5082527;28;19920;-70
2023/05/01 04:19:36;;;;;;;;;;;;;;;-140.72;100.00;52721.63;5084679;28;19960;-70
2023/05/01 04:22:02;;;;;;;;;;;;;;;-140.72;100.00;52731.75;5094970;28;19916;-70
2023/05/01 04:24:27;;;;;;;;;;;;;;;-140.72;100.00;52693.22;5091267;28;19938;-70
2023/05/01 04:26:53;;;;;;;;;;;;;;;-140.72;100.00;52687.13;5092063;28;20388;-70
2023/05/01 04:29:18;;;;;;;;;;;;;;;-140.72;100.00;52699.31;5094624;28;19943;-70
2023/05/01 04:31:43;;;;;;;;;;;;;;;-140.72;100.00;52707.41;5096499;28;19916;-70
2023/05/01 04:34:08;;;;;;;;;;;;;;;-140.72;100.00;52707.41;5089763;27;19927;-70
2023/05/01 04:36:33;;;;;;;;;;;;;;;-140.72;100.00;52707.41;5086522;28;19916;-70
2023/05/01 04:38:59;;;;;;;;;;;;;;;-140.72;100.00;52658.72;5087450;28;19965;-70
2023/05/01 04:41:32;;;;;;;;;;;;;;;-140.72;100.00;52703.34;5087036;28;19924;-72
2023/05/01 04:43:58;;;;;;;;;;;;;;;-140.72;100.00;52689.16;5099839;28;19916;-71
2023/05/01 04:46:23;;;;;;;;;;;;;;;-140.72;100.00;52689.16;5090669;28;19917;-70
2023/05/01 04:48:48;;;;;;;;;;;;;;;-140.72;100.00;52695.25;5080198;28;19964;-73
2023/05/01 04:51:14;;;;;;;;;;;;;;;-140.72;100.00;52691.19;5087514;28;20383;-73
2023/05/01 04:53:39;;;;;;;;;;;;;;;-140.72;100.00;52687.13;5099120;28;19962;-72
2023/05/01 04:56:05;;;;;;;;;;;;;;;-140.72;100.00;52703.34;5088946;28;19924;-72
2023/05/01 04:58:31;;;;;;;;;;;;;;;-140.72;100.00;52670.88;5084277;28;19973;-72
2023/05/01 05:00:56;;;;;;;;;;;;;;;-140.72;100.00;52670.88;5086983;28;20011;-72
2023/05/01 05:03:22;;;;;;;;;;;;;;;-140.72;100.00;52687.13;5094889;28;19923;-73
2023/05/01 05:05:47;;;;;;;;;;;;;;;-140.72;100.00;52691.19;5091705;28;19916;-72
2023/05/01 05:08:12;;;;;;;;;;;;;;;-140.72;100.00;52703.34;5096678;28;19920;-72
2023/05/01 05:10:37;;;;;;;;;;;;;;;-140.72;100.00;52693.22;5106003;28;19939;-72
2023/05/01 05:13:02;;;;;;;;;;;;;;;-140.72;100.00;52670.88;5093180;28;20290;-72
2023/05/01 05:15:28;;;;;;;;;;;;;;;-140.72;100.00;52656.69;5089432;28;20298;-72
2023/05/01 05:17:53;;;;;;;;;;;;;;;-140.72;100.00;52658.72;5091970;28;20279;-72
2023/05/01 05:20:18;;;;;;;;;;;;;;;-140.72;100.00;52662.78;5073309;28;19936;-75
2023/05/01 05:22:43;;;;;;;;;;;;;;;-140.72;100.00;52683.06;5079798;28;19946;-74
2023/05/01 05:25:09;;;;;;;;;;;;;;;-140.72;100.00;52670.88;5085428;28;19921;-73
2023/05/01 05:27:36;;;;;;;;;;;;;;;-140.72;100.00;52670.88;5078821;28;19931;-73
2023/05/01 05:30:06;;;;;;;;;;;;;;;-140.72;100.00;52707.41;5081285;28;20014;-71
2023/05/01 05:32:31;;;;;;;;;;;;;;;-140.72;100.00;52693.22;5080262;28;19924;-71
2023/05/01 05:34:56;;;;;;;;;;;;;;;-140.72;100.00;52666.84;5092852;28;19939;-71
2023/05/01 05:37:24;;;;;;;;;;;;;;;-140.72;100.00;52650.59;5074143;28;19923;-71
2023/05/01 05:39:49;;;;;;;;;;;;;;;-140.72;100.00;52670.88;5084208;28;20006;-70
2023/05/01 05:42:14;;;;;;;;;;;;;;;-140.72;100.00;52670.88;5083662;28;19928;-70
2023/05/01 05:44:40;;;;;;;;;;;;;;;-140.72;100.00;52638.41;5086965;28;20014;-69
2023/05/01 05:47:05;;;;;;;;;;;;;;;-140.72;100.00;52668.84;5074144;28;19928;-69
2023/05/01 05:49:30;;;;;;;;;;;;;;;-140.72;100.00;52670.88;5097896;28;19916;-69
2023/05/01 05:51:55;;;;;;;;;;;;;;;-140.72;100.00;52650.59;5094288;28;19920;-69
2023/05/01 05:54:21;;;;;;;;;;;;;;;-140.72;100.00;52662.78;5079873;28;20320;-69
2023/05/01 05:56:46;;;;;;;;;;;;;;;-140.72;100.00;52656.69;5093488;28;19916;-70
2023/05/01 05:59:11;;;;;;;;;;;;;;;-140.72;100.00;52618.13;5092447;28;19920;-69
2023/05/01 06:01:38;;;;;;;;;;;;;;;-140.72;100.00;52691.19;5093215;28;19942;-69
2023/05/01 06:04:04;;;;;;;;;;;;;;;-140.72;100.00;52630.31;5094272;28;20378;-69
2023/05/01 06:06:30;;;;;;;;;;;;;;;-140.72;100.00;52691.19;5093057;28;19923;-69
2023/05/01 06:08:55;;;;;;;;;;;;;;;-140.72;100.00;52679.00;5074012;28;19916;-70
2023/05/01 06:11:21;;;;;;;;;;;;;;;-140.72;100.00;52646.53;5087334;28;20002;-70
2023/05/01 06:13:46;;;;;;;;;;;;;;;-140.72;100.00;52638.41;5084247;28;19916;-70
2023/05/01 06:16:11;;;;;;;;;;;;;;;-140.72;100.00;52644.50;5093476;28;19977;-70
2023/05/01 06:18:37;;;;;;;;;;;;;;;-140.72;94.99;52646.53;5087873;28;19917;-70
2023/05/01 06:21:02;;;;;;;;;;;;;;;-140.72;57.92;52624.22;5082801;28;19920;-69
2023/05/01 06:23:27;;;;;;;;;;;;;;;-140.72;47.92;52638.41;5080195;28;19916;-69
2023/05/01 06:25:52;;;;;;;;;;;;;;;-140.72;39.43;52624.22;5079755;28;19916;-69
2023/05/01 06:28:18;;;;;;;;;;;;;;;-140.72;31.00;52589.72;5073503;28;20408;-70
2023/05/01 06:30:43;;;;;;;;;;;;;;;-140.72;16.79;52658.72;5074872;28;19924;-69
2023/05/01 06:33:09;;;;;;;;;;;;;;;-140.72;14.39;52581.59;5083845;28;19916;-70
2023/05/01 06:35:35;;;;;;;;;;;;;;;-140.72;11.25;52595.81;5096806;28;19923;-70
2023/05/01 06:38:01;;;;;;;;;;;;;;;-140.72;0.00;52660.75;5090838;28;20011;-69
2023/05/01 06:40:26;;;;;;;;;;;;;;;-140.72;0.00;52610.00;5095558;28;20012;-69
2023/05/01 06:42:52;;;;;;;;;;;;;;;-140.72;0.00;52585.66;5076711;28;20011;-69
2023/05/01 06:45:17;;;;;;;;;;;;;;;-140.72;0.00;52607.97;5094178;28;20362;-69
2023/05/01 06:47:42;;;;;;;;;;;;;;;-140.72;0.00;52597.84;5096762;28;20390;-70
2023/05/01 06:50:08;;;;;;;;;;;;;;;-140.72;0.00;52616.09;5096525;28;19923;-70
2023/05/01 06:52:33;;;;;;;;;;;;;;;-140.72;0.00;52603.94;5096548;28;20278;-70
2023/05/01 06:54:58;;;;;;;;;;;;;;;-140.72;0.00;52607.97;5096650;28;20343;-70
2023/05/01 06:57:23;;;;;;;;;;;;;;;-140.72;0.00;52587.69;5087246;28;19923;-70
2023/05/01 06:59:49;;;;;;;;;;;;;;;-140.72;0.00;52622.19;5086449;28;19920;-72
2023/05/01 07:02:14;;;;;;;;;;;;;;;-140.72;0.00;52587.69;5090056;28;19920;-72
2023/05/01 07:04:40;;;;;;;;;;;;;;;-140.72;0.00;52569.44;5096431;28;19916;-72
2023/05/01 07:07:05;;;;;;;;;;;;;;;-140.72;0.00;52593.78;5091774;28;20371;-72
2023/05/01 07:09:31;;;;;;;;;;;;;;;-140.72;0.00;52573.50;5087293;28;19969;-72
2023/05/01 07:11:57;;;;;;;;;;;;;;;-140.72;0.00;52589.72;5090153;28;20289;-72
2023/05/01 07:17:34;;;;;;;;;;;;;;;-140.72;0.00;52632.34;5097302;28;19918;-72
2023/05/01 07:20:18;;;;;;;;;;;;;;;-140.72;0.00;52577.53;5078246;28;19917;-72
2023/05/01 07:22:43;;;;;;;;;;;;;;;-140.72;0.00;52567.41;5076570;28;19917;-72
2023/05/01 07:25:08;;;;;;;;;;;;;;;-140.72;0.00;52559.28;5095224;28;19922;-72
2023/05/01 07:27:34;;;;;;;;;;;;;;;-140.72;0.00;52577.53;5095525;28;19966;-72
2023/05/01 07:29:59;;;;;;;;;;;;;;;-140.72;0.00;52573.50;5093721;28;19916;-72
2023/05/01 07:32:24;;;;;;;;;;;;;;;-140.72;0.00;52587.69;5086224;28;19970;-72
2023/05/01 07:34:50;;;;;;;;;;;;;;;-140.72;0.00;52607.97;5087738;28;19921;-72
2023/05/01 07:37:15;;;;;;;;;;;;;;;-140.72;0.00;52587.69;5084539;28;19989;-72
2023/05/01 07:39:40;;;;;;;;;;;;;;;-140.72;0.00;52573.50;5090142;28;20443;-72
2023/05/01 07:42:06;;;;;;;;;;;;;;;-140.72;0.00;52571.47;5083896;28;19925;-72
2023/05/01 07:44:31;;;;;;;;;;;;;;;-140.72;0.00;52565.38;5090878;28;19916;-72
2023/05/01 07:47:01;;;;;;;;;;;;;;;-140.72;0.00;52536.97;5079055;28;20002;-72
2023/05/01 07:49:26;;;;;;;;;;;;;;;-140.72;0.00;52585.66;5078405;28;19959;-72
2023/05/01 07:51:54;;;;;;;;;;;;;;;-140.72;0.00;52522.75;5090155;28;19928;-72
2023/05/01 07:54:20;;;;;;;;;;;;;;;-140.72;0.00;52532.91;5088475;28;19931;-72
2023/05/01 07:56:46;;;;;;;;;;;;;;;-140.72;0.00;52571.47;5083766;28;20005;-72
2023/05/01 07:59:11;;;;;;;;;;;;;;;-140.72;0.00;52500.44;5093054;28;19975;-72
2023/05/01 08:01:36;;;;;;;;;;;;;;;-140.72;0.00;52520.72;5076049;28;19916;-72
2023/05/01 08:04:01;;;;;;;;;;;;;;;-140.72;0.00;52512.59;5093911;28;19916;-72
2023/05/01 08:06:27;;;;;;;;;;;;;;;-140.72;0.00;52508.56;5089023;28;19941;-72
2023/05/01 08:08:52;;;;;;;;;;;;;;;-140.72;0.00;52516.66;5088301;28;19916;-72
2023/05/01 08:11:17;;;;;;;;;;;;;;;-140.72;0.00;52506.53;5081809;28;20406;-72
2023/05/01 08:13:42;;;;;;;;;;;;;;;-140.72;0.00;52488.25;5095173;28;20011;-73
2023/05/01 08:16:08;;;;;;;;;;;;;;;-140.72;0.00;52524.78;5088347;28;20285;-73
2023/05/01 08:18:33;;;;;;;;;;;;;;;-140.72;0.00;52536.97;5093870;28;19923;-73
2023/05/01 08:20:58;;;;;;;;;;;;;;;-140.72;0.00;52526.81;5086054;28;19965;-72
2023/05/01 08:23:24;;;;;;;;;;;;;;;-140.72;0.00;52536.97;5085991;28;19920;-72
2023/05/01 08:25:50;;;;;;;;;;;;;;;-140.72;0.00;52575.50;5094737;28;19916;-72
2023/05/01 08:28:16;;;;;;;;;;;;;;;-140.72;0.00;52547.09;5088723;28;19966;-72
2023/05/01 08:30:41;;;;;;;;;;;;;;;-140.72;0.00;52557.25;5088502;28;20409;-72
2023/05/01 08:33:06;;;;;;;;;;;;;;;-140.72;0.00;52541.03;5081012;28;20057;-72
2023/05/01 08:35:32;;;;;;;;;;;;;;;-140.72;0.00;52565.38;5086918;28;19920;-72
2023/05/01 08:37:57;;;;;;;;;;;;;;;-140.72;0.00;52543.03;5087107;28;19995;-72
2023/05/01 08:40:24;;;;;;;;;;;;;;;-140.72;0.00;52573.50;5088110;28;19970;-72
2023/05/01 08:42:50;;;;;;;;;;;;;;;-140.72;0.00;52536.97;5079243;28;19939;-72
2023/05/01 08:45:17;;;;;;;;;;;;;;;-140.72;0.00;52530.88;5082087;28;20374;-72
2023/05/01 08:47:43;;;;;;;;;;;;;;;-140.72;0.00;52547.09;5098811;28;20006;-72
2023/05/01 08:50:12;;;;;;;;;;;;;;;-140.72;0.00;52553.19;5080996;28;20011;-72
2023/05/01 08:52:40;;;;;;;;;;;;;;;-140.72;0.00;52567.41;5088069;28;19916;-73
2023/05/01 08:55:07;;;;;;;;;;;;;;;-140.72;0.00;52553.19;5093037;28;20057;-71
2023/05/01 08:57:33;;;;;;;;;;;;;;;-140.72;0.00;52526.81;5080520;28;20048;-71
2023/05/01 08:59:59;;;;;;;;;;;;;;;-140.72;0.00;52549.13;5098022;28;19920;-71
2023/05/01 09:02:26;;;;;;;;;;;;;;;-140.72;0.00;52571.47;5082692;28;19920;-70
2023/05/01 09:04:52;;;;;;;;;;;;;;;-140.72;0.00;52585.66;5094195;28;19916;-70
2023/05/01 09:07:18;;;;;;;;;;;;;;;-140.72;0.00;52557.25;5087957;28;19940;-70
2023/05/01 09:09:44;;;;;;;;;;;;;;;-140.72;0.00;52514.63;5087037;28;19916;-70
2023/05/01 09:12:23;;;;;;;;;;;;;;;-140.72;0.00;52539.00;5080826;28;19916;-70
2023/05/01 09:14:53;;;;;;;;;;;;;;;-140.72;0.00;52524.78;5092726;28;20276;-70
2023/05/01 09:17:19;;;;;;;;;;;;;;;-140.72;0.00;52496.38;5097183;27;19924;-70
2023/05/01 09:19:45;;;;;;;;;;;;;;;-140.72;0.00;52486.22;5079337;28;19916;-72
2023/05/01 09:22:10;;;;;;;;;;;;;;;-140.72;0.00;52508.56;5087602;28;19924;-72
2023/05/01 09:24:35;;;;;;;;;;;;;;;-140.72;0.00;52561.31;5091323;27;20007;-72
2023/05/01 09:27:01;;;;;;;;;;;;;;;-140.72;0.00;52528.84;5087187;28;19920;-72
2023/05/01 09:29:55;;;;;;;;;;;;;;;-140.72;0.00;52549.13;5094702;28;20374;-72
2023/05/01 09:32:26;;;;;;;;;;;;;;;-140.72;0.00;52569.44;5087059;28;20338;-72
2023/05/01 09:34:52;;;;;;;;;;;;;;;-140.72;0.00;52545.06;5085463;28;19916;-72
2023/05/01 09:37:30;;;;;;;;;;;;;;;-140.72;0.00;52565.38;5074115;28;19929;-72
2023/05/01 09:40:05;;;;;;;;;;;;;;;-140.72;0.00;52500.44;5084765;28;19927;-72
2023/05/01 09:42:33;;;;;;;;;;;;;;;-140.72;0.00;52498.41;5085797;28;20009;-73
2023/05/01 09:44:59;;;;;;;;;;;;;;;-140.72;0.00;52555.22;5072058;28;19978;-74
2023/05/01 09:47:28;;;;;;;;;;;;;;;-140.72;0.00;52536.97;5085211;28;20297;-72
2023/05/01 09:49:54;;;;;;;;;;;;;;;-140.72;0.00;52541.03;5081090;28;19916;-73
2023/05/01 09:52:19;;;;;;;;;;;;;;;-140.72;0.00;52545.06;5090706;28;19921;-72
2023/05/01 09:54:45;;;;;;;;;;;;;;;-140.72;0.00;52583.63;5075405;28;19934;-72
2023/05/01 09:57:10;;;;;;;;;;;;;;;-140.72;0.00;52567.41;5080019;28;19999;-72
2023/05/01 09:59:35;;;;;;;;;;;;;;;-140.72;0.00;52539.00;5099025;28;19942;-72
2023/05/01 10:02:01;;;;;;;;;;;;;;;-140.72;0.00;52581.59;5093598;28;20343;-75
2023/05/01 10:04:32;;;;;;;;;;;;;;;-140.72;57.16;52585.66;5075341;28;20437;-72
2023/05/01 10:07:18;;;;;;;;;;;;;;;-140.72;100.00;52614.06;5097490;28;19916;-72
2023/05/01 10:09:43;;;;;;;;;;;;;;;-140.72;100.00;52624.22;5087235;28;19978;-74
2023/05/01 10:12:08;;;;;;;;;;;;;;;-140.72;100.00;52622.19;5095042;28;20374;-73
2023/05/01 10:14:47;;;;;;;;;;;;;;;-140.72;100.00;52597.84;5089211;28;19920;-72
2023/05/01 10:17:18;;;;;;;;;;;;;;;-140.72;100.00;52610.00;5096679;28;19916;-72
2023/05/01 10:19:43;;;;;;;;;;;;;;;-140.72;100.00;52674.94;5083260;28;19962;-72
2023/05/01 10:22:09;;;;;;;;;;;;;;;-140.72;100.00;52642.47;5098261;28;19923;-72
2023/05/01 10:24:35;;;;;;;;;;;;;;;-140.72;100.00;52640.44;5093735;28;20322;-73
2023/05/01 10:27:03;;;;;;;;;;;;;;;-140.72;100.00;52601.91;5086831;28;19916;-73
2023/05/01 10:29:30;;;;;;;;;;;;;;;-140.72;100.00;52630.31;5096514;28;19915;-73
2023/05/01 10:31:55;;;;;;;;;;;;;;;-140.72;100.00;52630.31;5089021;28;19963;-71
2023/05/01 10:34:30;;;;;;;;;;;;;;;-140.72;100.00;52636.38;5089552;28;20023;-74
2023/05/01 10:37:01;;;;;;;;;;;;;;;-140.72;100.00;52626.25;5083327;28;19924;-71
2023/05/01 10:39:33;;;;;;;;;;;;;;;-140.72;100.00;52622.19;5090244;28;19917;-72
2023/05/01 10:42:16;;;;;;;;;;;;;;;-140.72;100.00;52654.66;5077476;28;19916;-73
2023/05/01 10:44:42;;;;;;;;;;;;;;;-140.72;100.00;52634.38;5083504;28;19923;-73
2023/05/01 10:47:33;;;;;;;;;;;;;;;-140.72;100.00;52654.66;5092651;28;19915;-73
2023/05/01 10:50:08;;;;;;;;;;;;;;;-140.72;100.00;52630.31;5112606;28;20370;-73
2023/05/01 10:52:52;;;;;;;;;;;;;;;-140.72;100.00;52654.66;5097595;28;19916;-73
2023/05/01 10:55:36;;;;;;;;;;;;;;;-140.72;100.00;52648.56;5083541;28;19916;-72
2023/05/01 10:58:02;;;;;;;;;;;;;;;-140.72;100.00;52628.28;5077653;28;19924;-73
2023/05/01 11:00:27;;;;;;;;;;;;;;;-140.72;100.00;52644.50;5091896;28;19920;-73
2023/05/01 11:03:25;;;;;;;;;;;;;;;-140.72;100.00;52668.84;5106541;28;19924;-74
2023/05/01 11:05:59;;;;;;;;;;;;;;;-140.72;100.00;52664.81;5073708;28;19977;-74
2023/05/01 11:08:34;;;;;;;;;;;;;;;-140.72;100.00;52646.53;5082548;28;19924;-74
2023/05/01 11:11:18;;;;;;;;;;;;;;;-140.72;100.00;52685.09;5086236;28;19917;-74
2023/05/01 11:13:55;;;;;;;;;;;;;;;-140.72;100.00;52630.31;5088968;28;19924;-74
2023/05/01 11:16:36;;;;;;;;;;;;;;;-140.72;100.00;52650.59;5080632;28;19962;-74
2023/05/01 11:22:11;;;;;;;;;;;;;;;-140.72;100.00;52630.31;5084983;28;19923;-72
2023/05/01 11:24:36;;;;;;;;;;;;;;;-140.72;100.00;52616.09;5083927;28;19920;-73
2023/05/01 11:27:03;;;;;;;;;;;;;;;-140.72;100.00;52650.59;5092305;28;19986;-72
2023/05/01 11:29:32;;;;;;;;;;;;;;;-140.72;100.00;52638.41;5096060;28;19916;-74
2023/05/01 11:31:58;;;;;;;;;;;;;;;-140.72;100.00;52595.81;5096273;28;19916;-73
2023/05/01 11:34:24;;;;;;;;;;;;;;;-140.72;100.00;52603.94;5094462;28;20441;-74
2023/05/01 11:36:50;;;;;;;;;;;;;;;-140.72;100.00;52581.59;5096975;28;20274;-76
2023/05/01 11:39:16;;;;;;;;;;;;;;;-140.72;100.00;52589.72;5089346;28;19927;-73
2023/05/01 11:41:41;;;;;;;;;;;;;;;-140.72;100.00;52567.41;5095856;28;20331;-73
2023/05/01 11:44:10;;;;;;;;;;;;;;;-140.72;100.00;52549.13;5083211;28;19943;-75
2023/05/01 11:46:36;;;;;;;;;;;;;;;-140.72;100.00;52561.31;5088542;28;19928;-72
2023/05/01 11:49:10;;;;;;;;;;;;;;;-140.72;100.00;52559.28;5081713;28;19916;-70
2023/05/01 11:51:35;;;;;;;;;;;;;;;-140.72;100.00;52534.94;5092629;28;19927;-70
2023/05/01 11:54:04;;;;;;;;;;;;;;;-140.72;100.00;52522.75;5085473;28;20289;-69
2023/05/01 11:56:29;;;;;;;;;;;;;;;-140.72;100.00;52478.13;5090340;28;20274;-70
2023/05/01 11:58:56;;;;;;;;;;;;;;;-140.72;100.00;52445.66;5082559;28;19926;-70
2023/05/01 12:01:31;;;;;;;;;;;;;;;-140.72;37.59;52484.19;5082008;28;20294;-71
2023/05/01 12:03:57;;;;;;;;;;;;;;;-140.72;15.98;52504.50;5094344;28;20317;-71
2023/05/01 12:06:34;;;;;;;;;;;;;;;-140.72;0.00;52465.94;5087943;28;19923;-71
2023/05/01 12:09:00;;;;;;;;;;;;;;;-140.72;0.00;52457.81;5078083;28;19978;-71
2023/05/01 12:11:26;;;;;;;;;;;;;;;-140.72;0.00;52431.44;5088841;28;19920;-71
2023/05/01 12:13:51;;;;;;;;;;;;;;;-140.72;0.00;52415.22;5074877;28;19924;-72
2023/05/01 12:16:17;;;;;;;;;;;;;;;-140.72;0.00;52451.72;5076211;28;19916;-70
2023/05/01 12:18:42;;;;;;;;;;;;;;;-140.72;0.00;52409.13;5086466;28;20468;-70
2023/05/01 12:21:13;;;;;;;;;;;;;;;-140.72;0.00;52421.28;5076560;28;20011;-70
2023/05/01 12:23:39;;;;;;;;;;;;;;;-140.72;0.00;52332.03;5085722;28;19917;-70
2023/05/01 12:26:17;;;;;;;;;;;;;;;-140.72;0.00;52244.78;5087859;28;19924;-70
2023/05/01 12:28:55;;;;;;;;;;;;;;;-140.72;0.00;52206.22;5086061;28;19917;-70
2023/05/01 12:31:21;;;;;;;;;;;;;;;-140.72;0.00;52153.47;5088351;28;19931;-70